Time;durP1;ratioP1;P1;durP2;ratioP2;P2;SDS_P1;SDS_P2;PMS_P1;PMS_P2;Temp;Humidity;BMP_temperature;BMP_pressure;BME280_temperature;BME280_humidity;BME280_pressure;Samples;Min_cycle;Max_cycle;Signal;HPM_P1;HPM_P2
2022/01/11 00:01:00;;;;;;;6.43;2.42;;;;;;;;;;5048943;28;20496;-61
2022/01/11 00:03:26;;;;;;;4.18;1.70;;;;;;;;;;5038338;28;20029;-61
2022/01/11 00:06:05;;;;;;;6.13;2.60;;;;;;;;;;5045486;28;20114;-61
2022/01/11 00:08:33;;;;;;;11.63;4.90;;;;;;;;;;5041785;28;20032;-61
2022/01/11 00:11:04;;;;;;;9.45;4.05;;;;;;;;;;5044007;28;20128;-61
2022/01/11 00:13:34;;;;;;;8.40;3.58;;;;;;;;;;5034308;28;20477;-62
2022/01/11 00:16:01;;;;;;;8.65;3.25;;;;;;;;;;5032469;28;20412;-62
2022/01/11 00:18:27;;;;;;;8.10;2.53;;;;;;;;;;5047111;28;20063;-61
2022/01/11 00:20:53;;;;;;;8.10;2.10;;;;;;;;;;5036409;28;20037;-61
2022/01/11 00:26:06;;;;;;;3.90;1.52;;;;;;;;;;5033023;28;20025;-61
2022/01/11 00:28:32;;;;;;;4.68;2.10;;;;;;;;;;5032244;28;20024;-61
2022/01/11 00:30:58;;;;;;;5.28;2.50;;;;;;;;;;5047554;28;20505;-61
2022/01/11 00:33:44;;;;;;;4.82;2.15;;;;;;;;;;5037449;28;20018;-61
2022/01/11 00:36:11;;;;;;;7.53;2.65;;;;;;;;;;5037478;28;20037;-61
2022/01/11 00:38:38;;;;;;;6.93;3.20;;;;;;;;;;5037308;28;20064;-61
2022/01/11 00:41:05;;;;;;;8.80;3.65;;;;;;;;;;5042963;28;20030;-61
2022/01/11 00:43:32;;;;;;;8.38;3.20;;;;;;;;;;5038591;28;20033;-63
2022/01/11 00:45:59;;;;;;;7.32;3.75;;;;;;;;;;5036989;28;20091;-61
2022/01/11 00:48:25;;;;;;;9.00;3.33;;;;;;;;;;5037728;28;20437;-62
2022/01/11 00:50:51;;;;;;;4.95;2.58;;;;;;;;;;5035800;28;20409;-61
2022/01/11 00:53:18;;;;;;;5.15;2.53;;;;;;;;;;5034885;28;20358;-62
2022/01/11 00:55:44;;;;;;;8.20;2.72;;;;;;;;;;5033823;28;20017;-61
2022/01/11 00:58:10;;;;;;;6.63;2.90;;;;;;;;;;5030497;28;20546;-61
2022/01/11 01:00:38;;;;;;;6.70;2.88;;;;;;;;;;5050148;28;20370;-62
2022/01/11 01:03:04;;;;;;;6.28;2.60;;;;;;;;;;5036580;28;20107;-61
2022/01/11 01:05:30;;;;;;;4.32;2.22;;;;;;;;;;5034442;28;20029;-61
2022/01/11 01:07:57;;;;;;;5.32;1.92;;;;;;;;;;5034640;28;20028;-61
2022/01/11 01:10:26;;;;;;;7.13;2.75;;;;;;;;;;5041830;28;20074;-61
2022/01/11 01:12:59;;;;;;;6.38;2.03;;;;;;;;;;5033860;28;20053;-61
2022/01/11 01:15:26;;;;;;;6.07;1.83;;;;;;;;;;5036470;28;20025;-61
2022/01/11 01:17:53;;;;;;;4.25;2.17;;;;;;;;;;5034060;28;20064;-62
2022/01/11 01:20:19;;;;;;;9.38;3.38;;;;;;;;;;5039937;28;20040;-61
2022/01/11 01:22:50;;;;;;;6.00;2.60;;;;;;;;;;5034283;28;20645;-61
2022/01/11 01:25:16;;;;;;;6.57;2.65;;;;;;;;;;5031256;28;20034;-61
2022/01/11 01:27:42;;;;;;;3.70;1.67;;;;;;;;;;5035516;28;20026;-62
2022/01/11 01:30:09;;;;;;;5.07;2.45;;;;;;;;;;5046250;28;20033;-61
2022/01/11 01:32:35;;;;;;;4.43;1.58;;;;;;;;;;5037428;28;20435;-62
2022/01/11 01:35:04;;;;;;;3.45;1.42;;;;;;;;;;5034196;28;20040;-61
2022/01/11 01:37:30;;;;;;;2.85;1.17;;;;;;;;;;5032157;28;20128;-66
2022/01/11 01:39:56;;;;;;;4.47;1.60;;;;;;;;;;5044772;28;20029;-62
2022/01/11 01:42:25;;;;;;;3.22;1.58;;;;;;;;;;5035682;28;20018;-62
2022/01/11 01:44:51;;;;;;;4.20;1.88;;;;;;;;;;5033626;28;20546;-62
2022/01/11 01:47:17;;;;;;;5.60;2.33;;;;;;;;;;5034018;28;20024;-62
2022/01/11 01:49:43;;;;;;;4.97;2.35;;;;;;;;;;5030873;28;20031;-62
2022/01/11 01:52:09;;;;;;;2.70;1.27;;;;;;;;;;5029348;28;20384;-61
2022/01/11 01:54:35;;;;;;;3.28;1.50;;;;;;;;;;5035377;28;20028;-62
2022/01/11 01:57:01;;;;;;;4.28;1.60;;;;;;;;;;5033536;28;20432;-62
2022/01/11 01:59:28;;;;;;;3.20;1.20;;;;;;;;;;5039342;28;20059;-62
2022/01/11 02:01:54;;;;;;;3.40;1.15;;;;;;;;;;5042883;28;20032;-62
2022/01/11 02:04:20;;;;;;;1.65;1.02;;;;;;;;;;5030588;28;20044;-62
2022/01/11 02:06:47;;;;;;;4.85;2.05;;;;;;;;;;5033812;28;20037;-62
2022/01/11 02:09:15;;;;;;;3.42;1.67;;;;;;;;;;5041635;28;20029;-61
2022/01/11 02:11:41;;;;;;;3.22;1.67;;;;;;;;;;5036054;28;20067;-63
2022/01/11 02:14:08;;;;;;;5.43;1.77;;;;;;;;;;5033010;28;20029;-62
2022/01/11 02:16:34;;;;;;;5.45;1.88;;;;;;;;;;5032318;28;20033;-62
2022/01/11 02:19:00;;;;;;;3.88;1.73;;;;;;;;;;5033328;28;20427;-62
2022/01/11 02:21:26;;;;;;;3.25;1.55;;;;;;;;;;5035340;28;20025;-62
2022/01/11 02:23:52;;;;;;;4.60;2.30;;;;;;;;;;5032836;28;20400;-62
2022/01/11 02:26:18;;;;;;;3.97;1.48;;;;;;;;;;5035162;28;20029;-61
2022/01/11 02:28:44;;;;;;;1.90;1.00;;;;;;;;;;5033255;28;20502;-62
2022/01/11 02:31:14;;;;;;;5.28;1.75;;;;;;;;;;5043696;28;20041;-62
2022/01/11 02:33:45;;;;;;;5.40;2.33;;;;;;;;;;5035247;28;20036;-62
2022/01/11 02:36:18;;;;;;;5.07;2.50;;;;;;;;;;5033618;28;20037;-62
2022/01/11 02:38:44;;;;;;;5.72;2.45;;;;;;;;;;5036429;28;20064;-62
2022/01/11 02:41:10;;;;;;;2.50;1.23;;;;;;;;;;5039697;28;20449;-62
2022/01/11 02:43:40;;;;;;;6.00;1.98;;;;;;;;;;5031868;28;20052;-61
2022/01/11 02:46:06;;;;;;;4.68;1.65;;;;;;;;;;5028822;28;20048;-62
2022/01/11 02:48:32;;;;;;;7.82;2.05;;;;;;;;;;5043199;28;20477;-63
2022/01/11 02:50:58;;;;;;;2.58;1.38;;;;;;;;;;5032975;28;20044;-61
2022/01/11 02:53:24;;;;;;;3.00;1.40;;;;;;;;;;5032519;28;20018;-61
2022/01/11 02:55:50;;;;;;;2.70;1.15;;;;;;;;;;5032398;28;20033;-60
2022/01/11 02:58:16;;;;;;;3.03;1.48;;;;;;;;;;5029177;28;20477;-60
2022/01/11 03:00:42;;;;;;;4.70;1.63;;;;;;;;;;5050135;28;20033;-61
2022/01/11 03:03:09;;;;;;;3.20;1.60;;;;;;;;;;5032891;28;20029;-61
2022/01/11 03:05:35;;;;;;;2.80;1.15;;;;;;;;;;5028119;28;20057;-61
2022/01/11 03:08:01;;;;;;;1.95;0.95;;;;;;;;;;5032579;28;20037;-61
2022/01/11 03:10:32;;;;;;;2.22;1.48;;;;;;;;;;5041272;28;20099;-60
2022/01/11 03:13:02;;;;;;;3.72;1.75;;;;;;;;;;5039330;28;20041;-61
2022/01/11 03:15:28;;;;;;;4.57;1.98;;;;;;;;;;5034875;28;20037;-61
2022/01/11 03:17:54;;;;;;;5.07;2.10;;;;;;;;;;5032517;28;20032;-61
2022/01/11 03:20:20;;;;;;;5.45;1.88;;;;;;;;;;5037830;28;20396;-61
2022/01/11 03:22:46;;;;;;;3.60;1.60;;;;;;;;;;5035989;28;20029;-61
2022/01/11 03:25:12;;;;;;;3.53;1.52;;;;;;;;;;5032206;28;20526;-61
2022/01/11 03:27:38;;;;;;;1.45;0.88;;;;;;;;;;5039206;28;20036;-61
2022/01/11 03:30:05;;;;;;;2.38;1.15;;;;;;;;;;5044966;28;20124;-61
2022/01/11 03:32:31;;;;;;;5.60;1.92;;;;;;;;;;5040146;28;20033;-61
2022/01/11 03:34:57;;;;;;;4.60;1.70;;;;;;;;;;5036139;28;20036;-62
2022/01/11 03:37:23;;;;;;;4.72;1.95;;;;;;;;;;5033465;28;20095;-61
2022/01/11 03:39:49;;;;;;;5.55;1.70;;;;;;;;;;5036465;28;20038;-61
2022/01/11 03:42:15;;;;;;;2.20;1.30;;;;;;;;;;5037218;28;20028;-61
2022/01/11 03:44:41;;;;;;;2.67;1.15;;;;;;;;;;5035462;28;20029;-62
2022/01/11 03:47:07;;;;;;;5.43;1.80;;;;;;;;;;5036000;28;20034;-62
2022/01/11 03:49:33;;;;;;;2.72;1.30;;;;;;;;;;5037745;28;20087;-61
2022/01/11 03:51:59;;;;;;;2.13;1.27;;;;;;;;;;5033166;28;20029;-62
2022/01/11 03:54:29;;;;;;;2.33;1.30;;;;;;;;;;5038317;28;20036;-61
2022/01/11 03:56:56;;;;;;;2.30;1.17;;;;;;;;;;5035673;28;20443;-61
2022/01/11 03:59:23;;;;;;;4.43;2.03;;;;;;;;;;5041111;28;20107;-61
2022/01/11 04:01:51;;;;;;;4.00;1.95;;;;;;;;;;5046272;28;20060;-61
2022/01/11 04:04:17;;;;;;;3.83;1.60;;;;;;;;;;5048272;28;20029;-61
2022/01/11 04:06:43;;;;;;;4.85;2.03;;;;;;;;;;5036984;28;20483;-62
2022/01/11 04:09:11;;;;;;;2.15;0.95;;;;;;;;;;5043531;28;20036;-61
2022/01/11 04:11:37;;;;;;;2.38;1.20;;;;;;;;;;5039099;28;20053;-61
2022/01/11 04:14:03;;;;;;;3.33;1.10;;;;;;;;;;5037151;28;20032;-61
2022/01/11 04:16:29;;;;;;;2.20;0.93;;;;;;;;;;5033840;28;20033;-61
2022/01/11 04:18:55;;;;;;;2.40;0.98;;;;;;;;;;5036479;28;20703;-61
2022/01/11 04:21:21;;;;;;;1.83;0.77;;;;;;;;;;5037207;28;20017;-61
2022/01/11 04:23:47;;;;;;;2.65;1.35;;;;;;;;;;5034554;28;20528;-61
2022/01/11 04:26:13;;;;;;;1.75;1.08;;;;;;;;;;5035240;28;20029;-62
2022/01/11 04:28:39;;;;;;;3.17;1.23;;;;;;;;;;5035115;28;20096;-61
2022/01/11 04:31:05;;;;;;;3.55;0.90;;;;;;;;;;5047483;28;20045;-61
2022/01/11 04:33:32;;;;;;;2.35;0.90;;;;;;;;;;5037910;28;20026;-61
2022/01/11 04:35:59;;;;;;;3.08;1.10;;;;;;;;;;5034805;28;20060;-62
2022/01/11 04:38:26;;;;;;;1.95;0.88;;;;;;;;;;5035606;28;20561;-61
2022/01/11 04:40:52;;;;;;;2.72;1.02;;;;;;;;;;5044612;28;20381;-61
2022/01/11 04:43:19;;;;;;;2.22;1.05;;;;;;;;;;5031892;28;20030;-61
2022/01/11 04:45:45;;;;;;;2.22;0.93;;;;;;;;;;5036120;28;20504;-61
2022/01/11 04:48:11;;;;;;;2.20;1.00;;;;;;;;;;5033700;28;20476;-60
2022/01/11 04:50:37;;;;;;;3.20;0.70;;;;;;;;;;5031579;28;20091;-62
2022/01/11 04:53:03;;;;;;;1.75;0.75;;;;;;;;;;5031049;28;20425;-59
2022/01/11 04:55:31;;;;;;;1.35;0.70;;;;;;;;;;5030124;28;20045;-60
2022/01/11 04:57:57;;;;;;;3.20;1.13;;;;;;;;;;5031948;28;20022;-60
2022/01/11 05:00:24;;;;;;;2.88;0.88;;;;;;;;;;5036019;28;20083;-60
2022/01/11 05:02:50;;;;;;;1.98;0.75;;;;;;;;;;5033888;28;20035;-62
2022/01/11 05:05:16;;;;;;;2.05;0.70;;;;;;;;;;5035477;28;20064;-59
2022/01/11 05:07:45;;;;;;;1.08;0.60;;;;;;;;;;5034730;28;20074;-60
2022/01/11 05:10:11;;;;;;;2.03;0.63;;;;;;;;;;5041136;28;20497;-60
2022/01/11 05:12:40;;;;;;;2.22;1.17;;;;;;;;;;5036717;28;20025;-61
2022/01/11 05:15:07;;;;;;;3.78;1.77;;;;;;;;;;5035035;28;20065;-59
2022/01/11 05:17:33;;;;;;;2.63;1.20;;;;;;;;;;5034454;28;20056;-59
2022/01/11 05:19:59;;;;;;;2.55;0.90;;;;;;;;;;5036603;28;20029;-60
2022/01/11 05:22:25;;;;;;;1.58;0.77;;;;;;;;;;5032243;28;20037;-60
2022/01/11 05:24:51;;;;;;;1.88;0.98;;;;;;;;;;5032605;28;20484;-60
2022/01/11 05:27:17;;;;;;;2.13;1.17;;;;;;;;;;5041529;28;20025;-60
2022/01/11 05:29:43;;;;;;;1.50;0.90;;;;;;;;;;5042552;28;20044;-60
2022/01/11 05:32:09;;;;;;;2.60;1.00;;;;;;;;;;5039983;28;20030;-60
2022/01/11 05:34:35;;;;;;;2.47;0.65;;;;;;;;;;5032953;28;20032;-60
2022/01/11 05:37:01;;;;;;;2.45;0.98;;;;;;;;;;5031140;28;20057;-60
2022/01/11 05:39:27;;;;;;;1.52;0.77;;;;;;;;;;5045223;28;20100;-60
2022/01/11 05:41:53;;;;;;;1.58;0.75;;;;;;;;;;5034710;28;20120;-60
2022/01/11 05:44:19;;;;;;;1.20;0.60;;;;;;;;;;5035266;28;20401;-60
2022/01/11 05:46:45;;;;;;;1.10;0.70;;;;;;;;;;5030573;28;20134;-60
2022/01/11 05:49:11;;;;;;;1.50;0.77;;;;;;;;;;5030675;28;20025;-60
2022/01/11 05:51:37;;;;;;;0.93;0.55;;;;;;;;;;5032257;28;20053;-60
2022/01/11 05:54:03;;;;;;;1.65;0.90;;;;;;;;;;5033818;28;20029;-61
2022/01/11 05:56:29;;;;;;;2.85;0.60;;;;;;;;;;5033210;28;20119;-64
2022/01/11 05:58:55;;;;;;;1.92;0.75;;;;;;;;;;5035529;28;20036;-63
2022/01/11 06:01:23;;;;;;;2.75;0.80;;;;;;;;;;5044752;28;20022;-63
2022/01/11 06:03:49;;;;;;;3.60;0.90;;;;;;;;;;5033443;28;20480;-60
2022/01/11 06:06:15;;;;;;;2.15;1.15;;;;;;;;;;5034170;28;20096;-60
2022/01/11 06:08:41;;;;;;;2.42;0.98;;;;;;;;;;5036263;28;20025;-60
2022/01/11 06:11:07;;;;;;;2.95;1.08;;;;;;;;;;5040617;28;20041;-61
2022/01/11 06:13:33;;;;;;;1.30;0.90;;;;;;;;;;5032064;28;20027;-60
2022/01/11 06:15:59;;;;;;;1.70;0.93;;;;;;;;;;5031319;28;20480;-59
2022/01/11 06:18:25;;;;;;;1.50;0.82;;;;;;;;;;5032607;28;20096;-60
2022/01/11 06:20:51;;;;;;;1.25;0.90;;;;;;;;;;5040865;28;20074;-60
2022/01/11 06:23:17;;;;;;;1.80;0.95;;;;;;;;;;5038954;28;20034;-63
2022/01/11 06:25:43;;;;;;;1.25;0.85;;;;;;;;;;5040730;28;20074;-63
2022/01/11 06:28:09;;;;;;;3.03;1.30;;;;;;;;;;5028924;28;20036;-63
2022/01/11 06:30:35;;;;;;;0.93;0.70;;;;;;;;;;5050620;28;20033;-63
2022/01/11 06:33:01;;;;;;;1.42;0.88;;;;;;;;;;5032086;28;20091;-63
2022/01/11 06:35:27;;;;;;;3.30;0.80;;;;;;;;;;5032441;28;20029;-63
2022/01/11 06:37:54;;;;;;;2.00;1.10;;;;;;;;;;5033567;28;20083;-63
2022/01/11 06:40:21;;;;;;;1.95;1.25;;;;;;;;;;5040495;28;20022;-59
2022/01/11 06:42:48;;;;;;;2.03;0.95;;;;;;;;;;5033212;28;20025;-60
2022/01/11 06:45:15;;;;;;;2.05;0.95;;;;;;;;;;5033754;28;20025;-60
2022/01/11 06:47:43;;;;;;;1.63;0.80;;;;;;;;;;5031896;28;20096;-60
2022/01/11 06:50:09;;;;;;;2.65;1.23;;;;;;;;;;5034962;28;20140;-60
2022/01/11 06:52:36;;;;;;;2.08;1.20;;;;;;;;;;5031825;28;20096;-59
2022/01/11 06:55:02;;;;;;;2.22;1.00;;;;;;;;;;5028746;28;20528;-61
2022/01/11 06:57:28;;;;;;;4.50;2.58;;;;;;;;;;5031558;28;20100;-60
2022/01/11 06:59:55;;;;;;;4.10;1.90;;;;;;;;;;5033244;28;20160;-61
2022/01/11 07:02:21;;;;;;;2.58;1.48;;;;;;;;;;5032106;28;20031;-61
2022/01/11 07:04:47;;;;;;;1.05;0.55;;;;;;;;;;5030576;28;20057;-61
2022/01/11 07:07:13;;;;;;;1.70;0.98;;;;;;;;;;5043103;28;20122;-61
2022/01/11 07:09:39;;;;;;;1.83;0.90;;;;;;;;;;5045805;28;20031;-61
2022/01/11 07:12:05;;;;;;;4.45;1.98;;;;;;;;;;5033027;28;20489;-61
2022/01/11 07:14:31;;;;;;;2.30;1.50;;;;;;;;;;5032719;28;20029;-61
2022/01/11 07:16:57;;;;;;;2.92;1.52;;;;;;;;;;5031677;28;20036;-61
2022/01/11 07:19:24;;;;;;;2.80;1.50;;;;;;;;;;5030679;28;20030;-60
2022/01/11 07:21:50;;;;;;;3.33;1.40;;;;;;;;;;5046435;28;20029;-61
2022/01/11 07:24:16;;;;;;;2.53;1.23;;;;;;;;;;5033692;28;20035;-61
2022/01/11 07:26:43;;;;;;;2.97;1.30;;;;;;;;;;5031804;28;20025;-61
2022/01/11 07:29:09;;;;;;;2.40;0.93;;;;;;;;;;5035303;28;20065;-61
2022/01/11 07:31:40;;;;;;;1.27;0.90;;;;;;;;;;5043345;28;20032;-61
2022/01/11 07:34:06;;;;;;;3.30;1.58;;;;;;;;;;5028465;28;20068;-61
2022/01/11 07:36:33;;;;;;;3.60;1.38;;;;;;;;;;5035261;28;20116;-61
2022/01/11 07:38:59;;;;;;;2.80;1.35;;;;;;;;;;5037066;28;20048;-61
2022/01/11 07:41:25;;;;;;;1.58;0.98;;;;;;;;;;5037133;28;20030;-61
2022/01/11 07:43:51;;;;;;;3.03;1.20;;;;;;;;;;5031980;28;20036;-61
2022/01/11 07:46:17;;;;;;;2.03;1.20;;;;;;;;;;5028896;28;20040;-61
2022/01/11 07:48:43;;;;;;;2.10;1.10;;;;;;;;;;5036123;28;20100;-61
2022/01/11 07:51:10;;;;;;;1.75;0.93;;;;;;;;;;5032649;28;20048;-62
2022/01/11 07:53:36;;;;;;;0.93;0.57;;;;;;;;;;5030874;28;20037;-61
2022/01/11 07:56:02;;;;;;;2.05;0.95;;;;;;;;;;5032130;28;20424;-61
2022/01/11 07:58:28;;;;;;;2.20;1.25;;;;;;;;;;5028102;28;20018;-61
2022/01/11 08:00:54;;;;;;;3.03;1.40;;;;;;;;;;5029587;28;20611;-61
2022/01/11 08:03:20;;;;;;;2.83;1.60;;;;;;;;;;5033401;28;20033;-62
2022/01/11 08:05:46;;;;;;;3.35;1.63;;;;;;;;;;5033896;28;20109;-62
2022/01/11 08:08:12;;;;;;;3.58;1.23;;;;;;;;;;5035517;28;20176;-62
2022/01/11 08:10:38;;;;;;;2.97;1.30;;;;;;;;;;5034715;28;20548;-62
2022/01/11 08:13:07;;;;;;;2.65;1.23;;;;;;;;;;5032127;28;20034;-62
2022/01/11 08:15:34;;;;;;;1.88;1.20;;;;;;;;;;5051692;28;20158;-62
2022/01/11 08:18:00;;;;;;;4.85;1.40;;;;;;;;;;5034401;28;20041;-62
2022/01/11 08:20:26;;;;;;;3.13;1.50;;;;;;;;;;5037168;28;20032;-62
2022/01/11 08:22:53;;;;;;;4.05;1.77;;;;;;;;;;5044860;28;20131;-62
2022/01/11 08:25:20;;;;;;;3.53;1.80;;;;;;;;;;5031015;28;20034;-62
2022/01/11 08:27:46;;;;;;;3.63;1.70;;;;;;;;;;5035976;28;20481;-62
2022/01/11 08:30:12;;;;;;;4.47;1.92;;;;;;;;;;5045783;28;20122;-62
2022/01/11 08:32:38;;;;;;;4.13;1.80;;;;;;;;;;5038779;28;20029;-62
2022/01/11 08:35:05;;;;;;;5.50;2.60;;;;;;;;;;5034402;28;20041;-62
2022/01/11 08:37:31;;;;;;;3.83;1.80;;;;;;;;;;5038350;28;20041;-62
2022/01/11 08:39:57;;;;;;;4.15;2.33;;;;;;;;;;5033840;28;20088;-62
2022/01/11 08:42:23;;;;;;;2.38;1.30;;;;;;;;;;5037013;28;20029;-63
2022/01/11 08:44:50;;;;;;;3.70;1.77;;;;;;;;;;5035113;28;20026;-61
2022/01/11 08:47:16;;;;;;;5.78;3.03;;;;;;;;;;5034504;28;20083;-61
2022/01/11 08:49:42;;;;;;;5.30;2.95;;;;;;;;;;5034603;28;20062;-61
2022/01/11 08:52:09;;;;;;;6.25;3.00;;;;;;;;;;5030791;28;20044;-61
2022/01/11 08:54:35;;;;;;;6.72;2.60;;;;;;;;;;5038712;28;20032;-61
2022/01/11 08:57:01;;;;;;;5.28;2.13;;;;;;;;;;5033142;28;20034;-61
2022/01/11 08:59:27;;;;;;;6.13;2.50;;;;;;;;;;5030002;28;20026;-61
2022/01/11 09:01:58;;;;;;;4.35;1.95;;;;;;;;;;5034851;28;20033;-61
2022/01/11 09:04:24;;;;;;;4.50;1.50;;;;;;;;;;5032265;28;20033;-61
2022/01/11 09:06:50;;;;;;;3.00;1.52;;;;;;;;;;5034562;28;20021;-61
2022/01/11 09:09:17;;;;;;;2.63;1.60;;;;;;;;;;5035322;28;20029;-61
2022/01/11 09:11:43;;;;;;;3.92;1.90;;;;;;;;;;5033943;28;20025;-61
2022/01/11 09:14:10;;;;;;;3.78;2.00;;;;;;;;;;5034482;28;20037;-60
2022/01/11 09:16:36;;;;;;;3.67;1.73;;;;;;;;;;5032843;28;20021;-61
2022/01/11 09:19:02;;;;;;;2.17;1.40;;;;;;;;;;5031032;28;20033;-60
2022/01/11 09:21:28;;;;;;;4.22;2.17;;;;;;;;;;5035182;28;20053;-60
2022/01/11 09:23:54;;;;;;;2.83;1.60;;;;;;;;;;5032093;28;20037;-60
2022/01/11 09:26:20;;;;;;;3.88;1.80;;;;;;;;;;5028454;28;20021;-60
2022/01/11 09:28:46;;;;;;;4.78;2.22;;;;;;;;;;5031527;28;20041;-60
2022/01/11 09:31:12;;;;;;;4.95;2.00;;;;;;;;;;5031789;28;20041;-60
2022/01/11 09:33:38;;;;;;;3.75;1.63;;;;;;;;;;5032481;28;20021;-59
2022/01/11 09:36:05;;;;;;;6.80;2.88;;;;;;;;;;5034632;28;20056;-59
2022/01/11 09:38:30;;;;;;;5.32;2.28;;;;;;;;;;5030881;28;20121;-59
2022/01/11 09:40:57;;;;;;;3.75;2.05;;;;;;;;;;5033621;28;20108;-59
2022/01/11 09:43:24;;;;;;;4.25;1.70;;;;;;;;;;5031471;28;20026;-61
2022/01/11 09:45:51;;;;;;;4.40;2.05;;;;;;;;;;5033867;28;20095;-60
2022/01/11 09:48:21;;;;;;;5.10;2.38;;;;;;;;;;5034754;28;20055;-59
2022/01/11 09:50:47;;;;;;;5.38;1.92;;;;;;;;;;5032232;28;20045;-60
2022/01/11 09:53:13;;;;;;;3.60;1.80;;;;;;;;;;5033625;28;20108;-60
2022/01/11 09:55:39;;;;;;;4.78;1.85;;;;;;;;;;5032837;28;20427;-60
2022/01/11 09:58:05;;;;;;;2.50;1.08;;;;;;;;;;5029785;28;22655;-60
2022/01/11 10:00:32;;;;;;;2.88;1.23;;;;;;;;;;5033539;28;20108;-60
2022/01/11 10:02:58;;;;;;;1.70;1.08;;;;;;;;;;5033666;28;20035;-60
2022/01/11 10:05:24;;;;;;;4.13;1.00;;;;;;;;;;5033187;28;20437;-60
2022/01/11 10:07:50;;;;;;;0.95;0.73;;;;;;;;;;5030962;28;20484;-60
2022/01/11 10:10:21;;;;;;;4.10;1.10;;;;;;;;;;5028772;28;20045;-60
2022/01/11 10:12:48;;;;;;;1.45;0.60;;;;;;;;;;5030869;28;20022;-60
2022/01/11 10:15:14;;;;;;;3.58;1.88;;;;;;;;;;5034334;28;20104;-61
2022/01/11 10:17:42;;;;;;;6.80;2.47;;;;;;;;;;5032559;28;20026;-60
2022/01/11 10:20:10;;;;;;;4.85;1.40;;;;;;;;;;5032305;28;20029;-61
2022/01/11 10:22:45;;;;;;;3.60;1.50;;;;;;;;;;5043231;28;20025;-60
2022/01/11 10:25:10;;;;;;;3.10;1.40;;;;;;;;;;5015136;28;20389;-60
2022/01/11 10:27:37;;;;;;;2.30;1.30;;;;;;;;;;5033727;28;20018;-61
2022/01/11 10:30:08;;;;;;;5.03;1.40;;;;;;;;;;5031863;28;20040;-61
2022/01/11 10:32:38;;;;;;;1.65;1.00;;;;;;;;;;5032927;28;20017;-61
2022/01/11 10:35:09;;;;;;;1.13;0.73;;;;;;;;;;5032488;28;20064;-61
2022/01/11 10:37:40;;;;;;;1.58;0.90;;;;;;;;;;5032088;28;20033;-61
2022/01/11 10:40:10;;;;;;;4.38;1.33;;;;;;;;;;5028919;28;20034;-61
2022/01/11 10:42:39;;;;;;;1.85;0.98;;;;;;;;;;5043382;28;20491;-61
2022/01/11 10:45:11;;;;;;;3.08;1.17;;;;;;;;;;5034831;28;20033;-61
2022/01/11 10:47:40;;;;;;;2.78;0.90;;;;;;;;;;5032525;28;20030;-61
2022/01/11 10:50:06;;;;;;;2.67;1.48;;;;;;;;;;5032479;28;20129;-61
2022/01/11 10:52:32;;;;;;;1.92;1.25;;;;;;;;;;5028008;28;20120;-61
2022/01/11 10:54:59;;;;;;;2.17;0.95;;;;;;;;;;5029957;28;20109;-61
2022/01/11 10:57:27;;;;;;;1.42;0.75;;;;;;;;;;5032822;28;20014;-61
2022/01/11 11:00:12;;;;;;;1.67;0.60;;;;;;;;;;5031153;28;20083;-61
2022/01/11 11:02:38;;;;;;;0.45;0.30;;;;;;;;;;5032019;28;20029;-61
2022/01/11 11:05:12;;;;;;;2.03;0.38;;;;;;;;;;5033928;28;20018;-60
2022/01/11 11:07:38;;;;;;;2.88;0.40;;;;;;;;;;5031538;28;20052;-61
2022/01/11 11:10:04;;;;;;;0.30;0.28;;;;;;;;;;5028889;28;20148;-62
2022/01/11 11:12:30;;;;;;;0.60;0.38;;;;;;;;;;5050069;28;20025;-61
2022/01/11 11:14:57;;;;;;;0.75;0.52;;;;;;;;;;5028866;28;20064;-62
2022/01/11 11:17:36;;;;;;;0.40;0.30;;;;;;;;;;5029009;28;20022;-61
2022/01/11 11:20:05;;;;;;;0.38;0.30;;;;;;;;;;5026802;28;20041;-61
2022/01/11 11:22:31;;;;;;;1.02;0.47;;;;;;;;;;5028887;28;20087;-64
2022/01/11 11:24:58;;;;;;;0.85;0.40;;;;;;;;;;5029303;28;20508;-61
2022/01/11 11:27:24;;;;;;;0.68;0.22;;;;;;;;;;5030576;28;20374;-63
2022/01/11 11:29:52;;;;;;;0.60;0.40;;;;;;;;;;5029394;28;20047;-62
2022/01/11 11:32:19;;;;;;;0.32;0.20;;;;;;;;;;5026428;28;20096;-60
2022/01/11 11:34:51;;;;;;;0.28;0.28;;;;;;;;;;5029361;28;20381;-60
2022/01/11 11:37:23;;;;;;;0.60;0.28;;;;;;;;;;5026206;28;20471;-60
2022/01/11 11:39:54;;;;;;;0.95;0.30;;;;;;;;;;5026673;28;20087;-59
2022/01/11 11:42:21;;;;;;;0.38;0.20;;;;;;;;;;5032922;28;20083;-62
2022/01/11 11:44:48;;;;;;;0.10;0.10;;;;;;;;;;5027035;28;20026;-60
2022/01/11 11:47:14;;;;;;;0.28;0.13;;;;;;;;;;5029284;28;20029;-62
2022/01/11 11:49:42;;;;;;;0.65;0.30;;;;;;;;;;5022246;28;20401;-61
2022/01/11 11:52:23;;;;;;;0.50;0.27;;;;;;;;;;5015193;28;20048;-60
2022/01/11 11:54:59;;;;;;;0.43;0.30;;;;;;;;;;5030366;28;20041;-62
2022/01/11 11:57:27;;;;;;;0.25;0.22;;;;;;;;;;5018669;28;20488;-64
2022/01/11 11:59:58;;;;;;;0.40;0.20;;;;;;;;;;5019300;28;20459;-63
2022/01/11 12:02:32;;;;;;;0.28;0.20;;;;;;;;;;5019575;28;20477;-61
2022/01/11 12:04:58;;;;;;;0.50;0.30;;;;;;;;;;5019166;28;20101;-60
2022/01/11 12:07:34;;;;;;;0.30;0.20;;;;;;;;;;5030754;28;20060;-63
2022/01/11 12:10:00;;;;;;;0.20;0.20;;;;;;;;;;5031947;28;20032;-62
2022/01/11 12:12:43;;;;;;;1.75;0.20;;;;;;;;;;5017412;28;20401;-62
2022/01/11 12:15:21;;;;;;;1.45;0.43;;;;;;;;;;5018875;28;20034;-60
2022/01/11 12:17:59;;;;;;;0.38;0.20;;;;;;;;;;5026644;28;20108;-62
2022/01/11 12:20:44;;;;;;;1.33;0.30;;;;;;;;;;5031261;28;20022;-63
2022/01/11 12:23:13;;;;;;;2.63;0.20;;;;;;;;;;5031231;28;20477;-60
2022/01/11 12:25:42;;;;;;;0.57;0.20;;;;;;;;;;5028538;28;20041;-60
2022/01/11 12:28:17;;;;;;;0.15;0.15;;;;;;;;;;5021790;28;20408;-62
2022/01/11 12:30:43;;;;;;;0.15;0.15;;;;;;;;;;5030642;28;20033;-62
2022/01/11 12:33:18;;;;;;;1.45;0.20;;;;;;;;;;5030063;28;20029;-62
2022/01/11 12:35:55;;;;;;;0.20;0.20;;;;;;;;;;5020752;28;20080;-62
2022/01/11 12:38:21;;;;;;;0.52;0.20;;;;;;;;;;5043861;28;20037;-61
2022/01/11 12:40:47;;;;;;;0.82;0.30;;;;;;;;;;5029787;28;20025;-67
2022/01/11 12:43:21;;;;;;;0.32;0.30;;;;;;;;;;5015446;28;20030;-63
2022/01/11 12:45:58;;;;;;;0.20;0.20;;;;;;;;;;5016996;28;20076;-61
2022/01/11 12:48:42;;;;;;;0.23;0.20;;;;;;;;;;5018516;28;20026;-62
2022/01/11 12:51:28;;;;;;;0.80;0.30;;;;;;;;;;5018032;28;20053;-61
2022/01/11 12:54:09;;;;;;;1.05;0.30;;;;;;;;;;5025796;28;20033;-62
2022/01/11 12:56:36;;;;;;;0.47;0.32;;;;;;;;;;5043752;28;20052;-62
2022/01/11 12:59:03;;;;;;;1.20;0.30;;;;;;;;;;5039209;28;20353;-62
2022/01/11 13:01:29;;;;;;;0.40;0.20;;;;;;;;;;5032860;28;20061;-61
2022/01/11 13:03:57;;;;;;;0.70;0.30;;;;;;;;;;5033711;28;20135;-61
2022/01/11 13:06:33;;;;;;;1.73;0.45;;;;;;;;;;5036669;28;20067;-61
2022/01/11 13:09:02;;;;;;;0.20;0.20;;;;;;;;;;5033997;28;20030;-61
2022/01/11 13:11:28;;;;;;;1.40;0.43;;;;;;;;;;5034065;28;20045;-61
2022/01/11 13:16:43;;;;;;;1.33;0.52;;;;;;;;;;5031052;28;20033;-61
2022/01/11 13:19:13;;;;;;;1.10;0.50;;;;;;;;;;5031824;28;20044;-63
2022/01/11 13:21:39;;;;;;;2.00;0.75;;;;;;;;;;5044731;28;20474;-61
2022/01/11 13:24:11;;;;;;;1.20;0.70;;;;;;;;;;5040086;28;20036;-61
2022/01/11 13:26:37;;;;;;;1.38;0.60;;;;;;;;;;5037976;28;20017;-61
2022/01/11 13:29:03;;;;;;;2.22;0.82;;;;;;;;;;5031210;28;20036;-62
2022/01/11 13:31:31;;;;;;;1.70;0.70;;;;;;;;;;5032274;28;20033;-62
2022/01/11 13:34:00;;;;;;;2.30;0.95;;;;;;;;;;5032345;28;20515;-61
2022/01/11 13:36:31;;;;;;;1.48;0.90;;;;;;;;;;5035613;28;20069;-61
2022/01/11 13:39:07;;;;;;;2.45;1.00;;;;;;;;;;5034033;28;20104;-61
2022/01/11 13:41:47;;;;;;;5.82;1.58;;;;;;;;;;5034070;28;20083;-61
2022/01/11 13:44:14;;;;;;;3.13;1.13;;;;;;;;;;5036106;28;20025;-61
2022/01/11 13:46:44;;;;;;;4.55;2.22;;;;;;;;;;5034713;28;20025;-61
2022/01/11 13:49:14;;;;;;;5.88;1.60;;;;;;;;;;5016474;28;20680;-61
2022/01/11 13:51:43;;;;;;;6.82;1.50;;;;;;;;;;5035105;28;20195;-61
2022/01/11 13:54:09;;;;;;;6.43;1.73;;;;;;;;;;5032790;28;20100;-61
2022/01/11 13:56:39;;;;;;;3.08;1.50;;;;;;;;;;5032063;28;20100;-61
2022/01/11 13:59:05;;;;;;;4.28;1.90;;;;;;;;;;5030076;28;20016;-61
2022/01/11 14:01:31;;;;;;;5.60;2.05;;;;;;;;;;5029953;28;20014;-61
2022/01/11 14:04:07;;;;;;;6.82;1.67;;;;;;;;;;5030728;28;20029;-61
2022/01/11 14:06:55;;;;;;;6.80;2.95;;;;;;;;;;5032307;28;20017;-61
2022/01/11 14:09:34;;;;;;;5.40;2.15;;;;;;;;;;5030084;28;20041;-61
2022/01/11 14:12:07;;;;;;;5.57;2.00;;;;;;;;;;5029903;28;20167;-61
2022/01/11 14:14:34;;;;;;;5.00;2.65;;;;;;;;;;5030225;28;20028;-62
2022/01/11 14:17:17;;;;;;;3.78;1.40;;;;;;;;;;5030700;28;20175;-61
2022/01/11 14:19:47;;;;;;;2.22;1.60;;;;;;;;;;5029325;28;20041;-61
2022/01/11 14:22:14;;;;;;;3.30;1.65;;;;;;;;;;5027711;28;20041;-62
2022/01/11 14:24:49;;;;;;;1.90;1.20;;;;;;;;;;5030939;28;20380;-61
2022/01/11 14:27:18;;;;;;;5.22;2.45;;;;;;;;;;5031178;28;20108;-61
2022/01/11 14:30:03;;;;;;;6.20;2.15;;;;;;;;;;5030920;28;20033;-61
2022/01/11 14:32:30;;;;;;;4.47;1.85;;;;;;;;;;5029667;28;20037;-61
2022/01/11 14:34:57;;;;;;;8.50;2.80;;;;;;;;;;5030068;28;20389;-61
2022/01/11 14:37:24;;;;;;;5.03;2.33;;;;;;;;;;5029657;28;20727;-61
2022/01/11 14:39:50;;;;;;;4.55;1.98;;;;;;;;;;5030085;28;20020;-61
2022/01/11 14:42:25;;;;;;;2.42;1.23;;;;;;;;;;5031556;28;20076;-62
2022/01/11 14:45:00;;;;;;;23.15;9.68;;;;;;;;;;5029730;28;20048;-61
2022/01/11 14:47:26;;;;;;;35.55;14.02;;;;;;;;;;5029660;28;20076;-61
2022/01/11 14:49:52;;;;;;;14.07;6.38;;;;;;;;;;5029771;28;20105;-61
2022/01/11 14:52:20;;;;;;;15.88;6.65;;;;;;;;;;5030000;28;20025;-61